Time;durP1;ratioP1;P1;durP2;ratioP2;P2;SDS_P1;SDS_P2;PMS_P1;PMS_P2;Temp;Humidity;BMP_temperature;BMP_pressure;BME280_temperature;BME280_humidity;BME280_pressure;Samples;Min_cycle;Max_cycle;Signal;HPM_P1;HPM_P2
2022/03/22 00:00:07;;;;;;;;;;;5.50;99.90;;;;;;5092824;28;19920;-61
2022/03/22 00:02:38;;;;;;;;;;;5.50;99.90;;;;;;5098030;28;19924;-61
2022/03/22 00:05:04;;;;;;;;;;;5.40;99.90;;;;;;5106631;28;20501;-60
2022/03/22 00:07:30;;;;;;;;;;;5.40;99.90;;;;;;5092855;28;19947;-61
2022/03/22 00:09:56;;;;;;;;;;;5.40;99.90;;;;;;5093372;28;19924;-60
2022/03/22 00:12:21;;;;;;;;;;;5.40;99.90;;;;;;5093362;28;19924;-61
2022/03/22 00:14:47;;;;;;;;;;;5.30;99.90;;;;;;5087284;28;19924;-60
2022/03/22 00:17:12;;;;;;;;;;;5.30;99.90;;;;;;5075848;28;19971;-61
2022/03/22 00:19:38;;;;;;;;;;;5.20;99.90;;;;;;5072670;28;19920;-61
2022/03/22 00:22:04;;;;;;;;;;;5.20;99.90;;;;;;5073373;28;20367;-61
2022/03/22 00:24:30;;;;;;;;;;;5.20;99.90;;;;;;5093798;28;19928;-60
2022/03/22 00:26:56;;;;;;;;;;;5.20;99.90;;;;;;5093620;28;19920;-61
2022/03/22 00:29:22;;;;;;;;;;;5.10;99.90;;;;;;5092446;28;19924;-60
2022/03/22 00:31:47;;;;;;;;;;;5.20;99.90;;;;;;5093393;28;19920;-61
2022/03/22 00:34:13;;;;;;;;;;;5.10;99.90;;;;;;5093315;28;19931;-60
2022/03/22 00:36:39;;;;;;;;;;;5.10;99.90;;;;;;5090849;28;19931;-60
2022/03/22 00:39:05;;;;;;;;;;;5.20;99.90;;;;;;5092065;28;19924;-60
2022/03/22 00:41:31;;;;;;;;;;;5.20;99.90;;;;;;5092509;28;19924;-61
2022/03/22 00:43:56;;;;;;;;;;;5.20;99.90;;;;;;5092454;28;19924;-60
2022/03/22 00:46:22;;;;;;;;;;;5.20;99.90;;;;;;5093334;28;19924;-61
2022/03/22 00:48:48;;;;;;;;;;;5.20;99.90;;;;;;5091791;28;19932;-60
2022/03/22 00:51:14;;;;;;;;;;;5.30;99.90;;;;;;5092413;28;20014;-61
2022/03/22 00:53:40;;;;;;;;;;;5.30;99.90;;;;;;5093439;28;19980;-60
2022/03/22 00:56:07;;;;;;;;;;;5.30;99.90;;;;;;5092257;28;19925;-60
2022/03/22 00:58:32;;;;;;;;;;;5.40;99.90;;;;;;5091159;28;20401;-60
2022/03/22 01:00:59;;;;;;;;;;;5.40;99.90;;;;;;5091843;28;19924;-60
2022/03/22 01:03:28;;;;;;;;;;;5.40;99.90;;;;;;5103310;28;19923;-60
2022/03/22 01:05:54;;;;;;;;;;;5.40;99.90;;;;;;5113121;28;20388;-60
2022/03/22 01:08:20;;;;;;;;;;;5.40;99.90;;;;;;5094304;28;20351;-61
2022/03/22 01:10:52;;;;;;;;;;;5.40;99.90;;;;;;5092233;28;19924;-60
2022/03/22 01:13:20;;;;;;;;;;;5.40;99.90;;;;;;5086242;28;19925;-60
2022/03/22 01:15:46;;;;;;;;;;;5.50;99.90;;;;;;5073413;28;19947;-60
2022/03/22 01:18:12;;;;;;;;;;;5.50;99.90;;;;;;5072024;28;20371;-60
2022/03/22 01:20:39;;;;;;;;;;;5.50;99.90;;;;;;5072458;28;19928;-60
2022/03/22 01:23:07;;;;;;;;;;;5.40;99.90;;;;;;5071294;28;19924;-60
2022/03/22 01:25:34;;;;;;;;;;;5.30;99.90;;;;;;5086302;28;20362;-60
2022/03/22 01:28:02;;;;;;;;;;;5.20;99.90;;;;;;5091192;28;20027;-60
2022/03/22 01:30:28;;;;;;;;;;;5.20;99.90;;;;;;5093359;28;19924;-60
2022/03/22 01:32:54;;;;;;;;;;;5.10;99.90;;;;;;5095770;28;20007;-60
2022/03/22 01:35:20;;;;;;;;;;;5.20;99.90;;;;;;5094914;28;20322;-60
2022/03/22 01:37:48;;;;;;;;;;;5.20;99.90;;;;;;5096593;28;19924;-60
2022/03/22 01:40:15;;;;;;;;;;;5.20;99.90;;;;;;5095802;28;20002;-60
2022/03/22 01:42:41;;;;;;;;;;;5.20;99.90;;;;;;5096000;28;19947;-60
2022/03/22 01:45:09;;;;;;;;;;;5.20;99.90;;;;;;5096739;28;20366;-60
2022/03/22 01:47:36;;;;;;;;;;;5.10;99.90;;;;;;5096380;28;19920;-60
2022/03/22 01:50:02;;;;;;;;;;;5.10;99.90;;;;;;5094567;28;20010;-60
2022/03/22 01:52:28;;;;;;;;;;;5.00;99.90;;;;;;5095065;28;20382;-60
2022/03/22 01:54:55;;;;;;;;;;;5.10;99.90;;;;;;5096369;28;19932;-60
2022/03/22 01:57:22;;;;;;;;;;;5.00;99.90;;;;;;5096030;28;19931;-60
2022/03/22 01:59:48;;;;;;;;;;;5.00;99.90;;;;;;5093704;28;20393;-60
2022/03/22 02:07:47;;;;;;;;;;;5.00;99.90;;;;;;5115757;28;19924;-60
2022/03/22 02:10:13;;;;;;;;;;;5.10;99.90;;;;;;5097289;28;19924;-60
2022/03/22 02:12:41;;;;;;;;;;;5.00;99.90;;;;;;5094334;28;20018;-60
2022/03/22 02:15:07;;;;;;;;;;;5.00;99.90;;;;;;5075257;28;19932;-60
2022/03/22 02:17:35;;;;;;;;;;;5.00;99.90;;;;;;5095290;28;19924;-60
2022/03/22 02:20:01;;;;;;;;;;;5.10;99.90;;;;;;5094499;28;19920;-60
2022/03/22 02:22:36;;;;;;;;;;;5.00;99.90;;;;;;5095012;28;19969;-60
2022/03/22 02:25:02;;;;;;;;;;;5.00;99.90;;;;;;5094480;28;19924;-60
2022/03/22 02:27:29;;;;;;;;;;;5.00;99.90;;;;;;5092892;28;19927;-60
2022/03/22 02:29:55;;;;;;;;;;;5.00;99.90;;;;;;5095372;28;20405;-60
2022/03/22 02:32:26;;;;;;;;;;;5.00;99.90;;;;;;5095610;28;19924;-60
2022/03/22 02:34:52;;;;;;;;;;;5.00;99.90;;;;;;5094081;28;20367;-60
2022/03/22 02:37:18;;;;;;;;;;;4.90;99.90;;;;;;5095521;28;19959;-60
2022/03/22 02:39:44;;;;;;;;;;;4.80;99.90;;;;;;5095226;28;20394;-60
2022/03/22 02:42:10;;;;;;;;;;;4.80;99.90;;;;;;5093390;28;19966;-60
2022/03/22 02:44:36;;;;;;;;;;;4.70;99.90;;;;;;5093478;28;20002;-60
2022/03/22 02:47:01;;;;;;;;;;;4.70;99.90;;;;;;5095465;28;19924;-60
2022/03/22 02:49:30;;;;;;;;;;;4.70;99.90;;;;;;5094175;28;20298;-60
2022/03/22 02:51:56;;;;;;;;;;;4.70;99.90;;;;;;5095175;28;20022;-60
2022/03/22 02:54:22;;;;;;;;;;;4.70;99.90;;;;;;5093731;28;20044;-60
2022/03/22 02:56:47;;;;;;;;;;;4.70;99.90;;;;;;5094169;28;20400;-60
2022/03/22 02:59:13;;;;;;;;;;;4.70;99.90;;;;;;5095150;28;19934;-60
2022/03/22 03:01:38;;;;;;;;;;;4.70;99.90;;;;;;5094776;28;19924;-60
2022/03/22 03:04:04;;;;;;;;;;;4.70;99.90;;;;;;5110292;28;19927;-60
2022/03/22 03:06:30;;;;;;;;;;;4.80;99.90;;;;;;5115447;28;19932;-60
2022/03/22 03:08:57;;;;;;;;;;;4.80;99.90;;;;;;5113728;28;20047;-60
2022/03/22 03:11:24;;;;;;;;;;;4.80;99.90;;;;;;5102057;28;19924;-60
2022/03/22 03:16:34;;;;;;;;;;;4.90;99.90;;;;;;5086442;28;20356;-60
2022/03/22 03:19:00;;;;;;;;;;;4.90;99.90;;;;;;5094029;28;19950;-60
2022/03/22 03:21:25;;;;;;;;;;;4.90;99.90;;;;;;5094678;28;19920;-60
2022/03/22 03:23:51;;;;;;;;;;;4.80;99.90;;;;;;5092483;28;19978;-60
2022/03/22 03:26:17;;;;;;;;;;;4.80;99.90;;;;;;5094314;28;20294;-60
2022/03/22 03:28:42;;;;;;;;;;;4.70;99.90;;;;;;5094059;28;19923;-60
2022/03/22 03:31:08;;;;;;;;;;;4.60;99.90;;;;;;5093853;28;20563;-60
2022/03/22 03:33:33;;;;;;;;;;;4.60;99.90;;;;;;5094107;28;19920;-60
2022/03/22 03:35:59;;;;;;;;;;;4.60;99.90;;;;;;5094246;28;20107;-60
2022/03/22 03:38:25;;;;;;;;;;;4.50;99.90;;;;;;5093365;28;19977;-60
2022/03/22 03:43:35;;;;;;;;;;;4.50;99.90;;;;;;5073802;28;20405;-60
2022/03/22 03:48:45;;;;;;;;;;;4.40;99.90;;;;;;5093622;28;20011;-60
2022/03/22 03:51:10;;;;;;;;;;;4.30;99.90;;;;;;5094086;28;20011;-60
2022/03/22 03:53:36;;;;;;;;;;;4.30;99.90;;;;;;5093539;28;19935;-60
2022/03/22 03:56:02;;;;;;;;;;;4.20;99.90;;;;;;5093292;28;20263;-60
2022/03/22 03:58:27;;;;;;;;;;;4.10;99.90;;;;;;5094050;28;20316;-60
2022/03/22 04:00:53;;;;;;;;;;;4.10;99.90;;;;;;5092982;28;19924;-59
2022/03/22 04:03:19;;;;;;;;;;;4.00;99.90;;;;;;5100297;28;19924;-60
2022/03/22 04:05:44;;;;;;;;;;;4.00;99.90;;;;;;5093623;28;19931;-60
2022/03/22 04:08:10;;;;;;;;;;;4.10;99.90;;;;;;5093074;28;19931;-60
2022/03/22 04:10:35;;;;;;;;;;;4.10;99.90;;;;;;5092990;28;19928;-60
2022/03/22 04:13:01;;;;;;;;;;;4.10;99.90;;;;;;5088139;28;19924;-60
2022/03/22 04:15:29;;;;;;;;;;;4.00;99.90;;;;;;5076566;28;19931;-60
2022/03/22 04:17:57;;;;;;;;;;;4.00;99.90;;;;;;5093533;28;19978;-60
2022/03/22 04:20:23;;;;;;;;;;;4.00;99.90;;;;;;5091395;28;19924;-60
2022/03/22 04:22:48;;;;;;;;;;;4.00;99.90;;;;;;5091819;28;19920;-60
2022/03/22 04:25:14;;;;;;;;;;;3.90;99.90;;;;;;5093257;28;19924;-60
2022/03/22 04:33:20;;;;;;;;;;;3.80;99.90;;;;;;5092943;28;20393;-60
2022/03/22 04:35:45;;;;;;;;;;;3.90;99.90;;;;;;5091460;28;19924;-60
2022/03/22 04:38:11;;;;;;;;;;;3.90;99.90;;;;;;5093368;28;20381;-60
2022/03/22 04:40:39;;;;;;;;;;;3.90;99.90;;;;;;5092427;28;19928;-60
2022/03/22 04:43:06;;;;;;;;;;;3.90;99.90;;;;;;5092435;28;20286;-60
2022/03/22 04:45:35;;;;;;;;;;;3.90;99.90;;;;;;5093491;28;19924;-60
2022/03/22 04:48:01;;;;;;;;;;;3.90;99.90;;;;;;5092127;28;19975;-60
2022/03/22 04:50:26;;;;;;;;;;;4.00;99.90;;;;;;5093086;28;19970;-60
2022/03/22 04:58:20;;;;;;;;;;;4.10;99.90;;;;;;5093077;28;19989;-60
2022/03/22 05:00:46;;;;;;;;;;;4.00;99.90;;;;;;5091720;28;19924;-60
2022/03/22 05:03:12;;;;;;;;;;;4.00;99.90;;;;;;5101175;28;19924;-60
2022/03/22 05:08:22;;;;;;;;;;;4.00;99.90;;;;;;5095411;28;19924;-60
2022/03/22 05:10:47;;;;;;;;;;;4.00;99.90;;;;;;5096146;28;19931;-60
2022/03/22 05:13:13;;;;;;;;;;;3.90;99.90;;;;;;5089553;28;19925;-60
2022/03/22 05:15:39;;;;;;;;;;;3.80;99.90;;;;;;5084696;28;19932;-60
2022/03/22 05:18:05;;;;;;;;;;;3.70;99.90;;;;;;5075709;28;19925;-60
2022/03/22 05:20:31;;;;;;;;;;;3.70;99.90;;;;;;5058629;28;19924;-60
2022/03/22 05:22:58;;;;;;;;;;;3.60;99.90;;;;;;5077918;28;19978;-60
2022/03/22 05:25:24;;;;;;;;;;;3.60;99.90;;;;;;5096052;28;20395;-60
2022/03/22 05:27:50;;;;;;;;;;;3.60;99.90;;;;;;5078394;28;19932;-60
2022/03/22 05:30:15;;;;;;;;;;;3.60;99.90;;;;;;5094614;28;19925;-60
2022/03/22 05:32:41;;;;;;;;;;;3.60;99.90;;;;;;5096199;28;19924;-60
2022/03/22 05:35:07;;;;;;;;;;;3.60;99.90;;;;;;5095192;28;19969;-60
2022/03/22 05:37:32;;;;;;;;;;;3.60;99.90;;;;;;5095906;28;19931;-60
2022/03/22 05:39:58;;;;;;;;;;;3.70;99.90;;;;;;5095084;28;19920;-60
2022/03/22 05:42:25;;;;;;;;;;;3.70;99.90;;;;;;5096036;28;19924;-60
2022/03/22 05:44:50;;;;;;;;;;;3.70;99.90;;;;;;5095493;28;20401;-60
2022/03/22 05:47:16;;;;;;;;;;;3.80;99.90;;;;;;5096243;28;19920;-59
2022/03/22 05:49:41;;;;;;;;;;;3.80;99.90;;;;;;5095877;28;19924;-59
2022/03/22 05:52:07;;;;;;;;;;;3.80;99.90;;;;;;5095361;28;20350;-60
2022/03/22 05:54:34;;;;;;;;;;;3.80;99.90;;;;;;5096087;28;20366;-60
2022/03/22 05:57:00;;;;;;;;;;;3.90;99.90;;;;;;5096403;28;19971;-60
2022/03/22 05:59:25;;;;;;;;;;;3.90;99.90;;;;;;5095302;28;19931;-60
2022/03/22 06:01:51;;;;;;;;;;;3.90;99.90;;;;;;5095850;28;19924;-60
2022/03/22 06:04:17;;;;;;;;;;;3.90;99.90;;;;;;5114201;28;19930;-60
2022/03/22 06:06:42;;;;;;;;;;;3.90;99.90;;;;;;5115753;28;20402;-60
2022/03/22 06:09:08;;;;;;;;;;;3.90;99.90;;;;;;5097636;28;19967;-60
2022/03/22 06:11:35;;;;;;;;;;;4.00;99.90;;;;;;5095807;28;19924;-60
2022/03/22 06:14:03;;;;;;;;;;;4.00;99.90;;;;;;5082188;28;19974;-60
2022/03/22 06:16:29;;;;;;;;;;;4.00;99.90;;;;;;5086728;28;20390;-60
2022/03/22 06:18:55;;;;;;;;;;;4.10;99.90;;;;;;5094938;28;19924;-60
2022/03/22 06:21:21;;;;;;;;;;;4.10;99.90;;;;;;5094928;28;20014;-60
2022/03/22 06:23:48;;;;;;;;;;;4.20;99.90;;;;;;5095517;28;20433;-60
2022/03/22 06:26:14;;;;;;;;;;;4.20;99.90;;;;;;5095502;28;19967;-60
2022/03/22 06:28:40;;;;;;;;;;;4.40;99.90;;;;;;5094975;28;19967;-60
2022/03/22 06:31:06;;;;;;;;;;;4.30;99.90;;;;;;5095072;28;19924;-60
2022/03/22 06:33:32;;;;;;;;;;;4.40;99.90;;;;;;5093695;28;19947;-60
2022/03/22 06:35:57;;;;;;;;;;;4.40;99.90;;;;;;5095261;28;19951;-60
2022/03/22 06:38:23;;;;;;;;;;;4.50;99.90;;;;;;5094160;28;19932;-60
2022/03/22 06:40:50;;;;;;;;;;;4.50;99.90;;;;;;5094423;28;20399;-60
2022/03/22 06:43:16;;;;;;;;;;;4.50;99.90;;;;;;5095002;28;20382;-60
2022/03/22 06:45:43;;;;;;;;;;;4.50;99.90;;;;;;5093662;28;19924;-60
2022/03/22 06:48:09;;;;;;;;;;;4.50;99.90;;;;;;5094297;28;19975;-60
2022/03/22 06:50:36;;;;;;;;;;;4.50;99.90;;;;;;5095345;28;19979;-60
2022/03/22 06:53:04;;;;;;;;;;;4.50;99.90;;;;;;5094796;28;20338;-60
2022/03/22 06:55:31;;;;;;;;;;;4.60;99.90;;;;;;5093104;28;20301;-60
2022/03/22 06:57:57;;;;;;;;;;;4.60;99.90;;;;;;5093614;28;20441;-60
2022/03/22 07:00:23;;;;;;;;;;;4.70;99.90;;;;;;5093010;28;19928;-60
2022/03/22 07:02:49;;;;;;;;;;;4.70;99.90;;;;;;5098429;28;19924;-60
2022/03/22 07:05:15;;;;;;;;;;;4.80;99.90;;;;;;5113929;28;20035;-60
2022/03/22 07:07:41;;;;;;;;;;;4.90;99.90;;;;;;5113810;28;20282;-60
2022/03/22 07:10:08;;;;;;;;;;;5.00;99.90;;;;;;5103836;28;19946;-60
2022/03/22 07:12:44;;;;;;;;;;;5.10;99.90;;;;;;5094443;28;19928;-60
2022/03/22 07:15:10;;;;;;;;;;;5.30;99.90;;;;;;5079965;28;19975;-60
2022/03/22 07:17:36;;;;;;;;;;;5.50;99.90;;;;;;5085077;28;20346;-60
2022/03/22 07:20:01;;;;;;;;;;;5.70;99.90;;;;;;5080339;28;20286;-60
2022/03/22 07:22:27;;;;;;;;;;;5.90;99.90;;;;;;5073904;28;19925;-60
2022/03/22 07:24:53;;;;;;;;;;;5.90;99.90;;;;;;5073488;28;19928;-60
2022/03/22 07:27:18;;;;;;;;;;;6.20;99.90;;;;;;5079337;28;20289;-60
2022/03/22 07:29:44;;;;;;;;;;;6.30;99.90;;;;;;5092525;28;20066;-60
2022/03/22 07:32:10;;;;;;;;;;;6.60;99.90;;;;;;5092550;28;19939;-60
2022/03/22 07:34:36;;;;;;;;;;;6.80;99.90;;;;;;5094489;28;19931;-60
2022/03/22 07:37:01;;;;;;;;;;;7.00;99.90;;;;;;5093402;28;19924;-60
2022/03/22 07:39:29;;;;;;;;;;;7.20;99.90;;;;;;5092921;28;20000;-60
2022/03/22 07:41:55;;;;;;;;;;;7.40;99.90;;;;;;5094025;28;19977;-60
2022/03/22 07:44:21;;;;;;;;;;;7.70;99.90;;;;;;5092047;28;19931;-60
2022/03/22 07:46:47;;;;;;;;;;;7.80;99.90;;;;;;5093894;28;19924;-60
2022/03/22 07:54:42;;;;;;;;;;;8.40;99.90;;;;;;5082193;28;19931;-60
2022/03/22 07:57:08;;;;;;;;;;;8.50;99.90;;;;;;5082714;28;19930;-60
2022/03/22 07:59:34;;;;;;;;;;;8.70;99.90;;;;;;5083083;28;20286;-60
2022/03/22 08:02:00;;;;;;;;;;;8.80;99.90;;;;;;5083746;28;19928;-60
2022/03/22 08:04:26;;;;;;;;;;;8.90;99.90;;;;;;5084638;28;19924;-60
2022/03/22 08:06:52;;;;;;;;;;;9.10;99.90;;;;;;5083884;28;19959;-60
2022/03/22 08:09:18;;;;;;;;;;;9.30;99.90;;;;;;5086742;28;19928;-60
2022/03/22 08:11:44;;;;;;;;;;;9.40;99.90;;;;;;5092532;28;19977;-60
2022/03/22 08:14:10;;;;;;;;;;;9.60;99.90;;;;;;5078965;28;19927;-60
2022/03/22 08:16:36;;;;;;;;;;;9.80;99.90;;;;;;5085788;28;20362;-60
2022/03/22 08:19:04;;;;;;;;;;;10.00;99.90;;;;;;5093017;28;20365;-61
2022/03/22 08:21:30;;;;;;;;;;;10.10;99.90;;;;;;5086479;28;19928;-61
2022/03/22 08:23:56;;;;;;;;;;;10.20;99.90;;;;;;5072698;28;19928;-60
2022/03/22 08:26:22;;;;;;;;;;;10.30;99.90;;;;;;5081890;28;20043;-60
2022/03/22 08:28:49;;;;;;;;;;;10.50;99.90;;;;;;5091892;28;19931;-60
2022/03/22 08:31:15;;;;;;;;;;;10.50;99.90;;;;;;5093186;28;19924;-61
2022/03/22 08:33:41;;;;;;;;;;;10.80;99.90;;;;;;5090505;28;19931;-61
2022/03/22 08:36:07;;;;;;;;;;;11.10;99.90;;;;;;5092874;28;19924;-61
2022/03/22 08:38:33;;;;;;;;;;;11.20;99.90;;;;;;5090746;28;19935;-61
2022/03/22 08:40:59;;;;;;;;;;;11.30;99.90;;;;;;5086013;28;19930;-60
2022/03/22 08:43:25;;;;;;;;;;;11.30;99.90;;;;;;5073280;28;20275;-60
2022/03/22 08:45:51;;;;;;;;;;;11.30;99.90;;;;;;5072678;28;19920;-61
2022/03/22 08:48:17;;;;;;;;;;;11.50;99.90;;;;;;5080866;28;19931;-61
2022/03/22 08:50:44;;;;;;;;;;;11.60;99.90;;;;;;5083258;28;19924;-61
2022/03/22 08:53:10;;;;;;;;;;;11.80;99.90;;;;;;5091662;28;19973;-60
2022/03/22 08:55:36;;;;;;;;;;;11.90;99.90;;;;;;5091068;28;20274;-60
2022/03/22 08:58:08;;;;;;;;;;;12.00;99.90;;;;;;5093310;28;19931;-60
2022/03/22 09:00:34;;;;;;;;;;;12.10;99.90;;;;;;5092879;28;20382;-61
2022/03/22 09:03:00;;;;;;;;;;;12.10;99.90;;;;;;5098550;28;19924;-61
2022/03/22 09:08:10;;;;;;;;;;;12.10;99.90;;;;;;5092872;28;20302;-60
2022/03/22 09:10:36;;;;;;;;;;;12.20;99.90;;;;;;5092229;28;19927;-60
2022/03/22 09:13:03;;;;;;;;;;;12.20;99.90;;;;;;5092434;28;19924;-60
2022/03/22 09:15:29;;;;;;;;;;;12.40;99.90;;;;;;5091979;28;19928;-60
2022/03/22 09:17:55;;;;;;;;;;;12.50;99.90;;;;;;5091668;28;19985;-60
2022/03/22 09:20:21;;;;;;;;;;;12.80;99.90;;;;;;5086973;28;20008;-60
2022/03/22 09:22:48;;;;;;;;;;;12.90;99.90;;;;;;5080425;28;19931;-60
2022/03/22 09:25:14;;;;;;;;;;;13.10;99.90;;;;;;5092830;28;20378;-61
2022/03/22 09:27:41;;;;;;;;;;;13.40;99.90;;;;;;5093030;28;19928;-61
2022/03/22 09:30:08;;;;;;;;;;;13.60;99.90;;;;;;5092192;28;19924;-60
2022/03/22 09:32:36;;;;;;;;;;;13.80;99.90;;;;;;5092364;28;19925;-60
2022/03/22 09:35:06;;;;;;;;;;;14.00;99.90;;;;;;5092828;28;19924;-60
2022/03/22 09:37:32;;;;;;;;;;;14.30;99.90;;;;;;5091770;28;19924;-61
2022/03/22 09:39:58;;;;;;;;;;;14.50;99.90;;;;;;5091156;28;19931;-61
2022/03/22 09:42:24;;;;;;;;;;;14.70;99.90;;;;;;5089995;28;19924;-61
2022/03/22 09:44:50;;;;;;;;;;;14.80;99.90;;;;;;5090705;28;20051;-61
2022/03/22 09:47:16;;;;;;;;;;;15.00;99.90;;;;;;5091549;28;19924;-61
2022/03/22 09:49:41;;;;;;;;;;;15.20;99.90;;;;;;5087135;28;19925;-61
2022/03/22 09:52:08;;;;;;;;;;;15.40;99.90;;;;;;5092859;28;19928;-61
2022/03/22 09:54:34;;;;;;;;;;;15.70;99.90;;;;;;5094961;28;20382;-61
2022/03/22 09:57:00;;;;;;;;;;;15.80;99.90;;;;;;5094928;28;19928;-61
2022/03/22 09:59:25;;;;;;;;;;;16.00;99.90;;;;;;5093695;28;20290;-61
2022/03/22 10:01:52;;;;;;;;;;;16.10;99.90;;;;;;5094853;28;19932;-61
2022/03/22 10:04:18;;;;;;;;;;;16.20;99.90;;;;;;5114352;28;19931;-61
2022/03/22 10:06:47;;;;;;;;;;;16.40;99.90;;;;;;5108313;28;20002;-61
2022/03/22 10:09:12;;;;;;;;;;;16.50;99.90;;;;;;5095740;28;19923;-61
2022/03/22 10:11:39;;;;;;;;;;;16.60;99.90;;;;;;5095209;28;20314;-61
2022/03/22 10:14:05;;;;;;;;;;;16.60;99.90;;;;;;5095437;28;19924;-61
2022/03/22 10:16:31;;;;;;;;;;;16.90;99.90;;;;;;5083317;28;19934;-61
2022/03/22 10:18:56;;;;;;;;;;;17.00;99.90;;;;;;5074764;28;19928;-61
2022/03/22 10:21:22;;;;;;;;;;;17.30;94.90;;;;;;5074135;28;20260;-61
2022/03/22 10:23:49;;;;;;;;;;;17.50;97.60;;;;;;5076664;28;20278;-61
2022/03/22 10:26:15;;;;;;;;;;;17.60;99.90;;;;;;5094883;28;19925;-61
2022/03/22 10:28:49;;;;;;;;;;;17.70;93.60;;;;;;5093568;28;20367;-61
2022/03/22 10:31:16;;;;;;;;;;;17.90;99.30;;;;;;5087170;28;19924;-61
2022/03/22 10:33:54;;;;;;;;;;;18.20;99.90;;;;;;5084610;28;19925;-61
2022/03/22 10:36:21;;;;;;;;;;;18.60;93.70;;;;;;5091494;28;20144;-61
2022/03/22 10:38:52;;;;;;;;;;;19.00;98.30;;;;;;5095490;28;19924;-61
2022/03/22 10:41:18;;;;;;;;;;;;;;;;;;5092051;28;19920;-61
2022/03/22 10:43:45;;;;;;;;;;;19.50;91.30;;;;;;5094719;28;19963;-61
2022/03/22 10:46:12;;;;;;;;;;;19.60;77.40;;;;;;5095535;28;20302;-61
2022/03/22 10:48:40;;;;;;;;;;;19.80;75.50;;;;;;5087958;28;19920;-61
2022/03/22 10:51:06;;;;;;;;;;;19.90;82.00;;;;;;5085371;28;19968;-61
2022/03/22 10:53:33;;;;;;;;;;;19.90;70.30;;;;;;5085252;28;20271;-61
2022/03/22 10:55:59;;;;;;;;;;;19.80;84.10;;;;;;5072728;28;20379;-61
2022/03/22 10:58:26;;;;;;;;;;;19.90;76.10;;;;;;5074406;28;19951;-62
2022/03/22 11:00:52;;;;;;;;;;;20.20;84.70;;;;;;5089113;28;19986;-61
2022/03/22 11:03:18;;;;;;;;;;;20.50;83.00;;;;;;5103979;28;20611;-62
2022/03/22 11:05:45;;;;;;;;;;;20.60;74.10;;;;;;5114926;28;19924;-61
2022/03/22 11:08:11;;;;;;;;;;;20.70;79.00;;;;;;5111809;28;20022;-62
2022/03/22 11:10:37;;;;;;;;;;;20.40;68.60;;;;;;5094477;28;19967;-62
2022/03/22 11:13:03;;;;;;;;;;;20.50;79.20;;;;;;5089440;28;20348;-62
2022/03/22 11:15:31;;;;;;;;;;;20.60;80.40;;;;;;5075810;28;20362;-62
2022/03/22 11:18:00;;;;;;;;;;;20.90;78.10;;;;;;5092618;28;22272;-62
2022/03/22 11:20:27;;;;;;;;;;;21.20;78.50;;;;;;5094285;28;19924;-62
2022/03/22 11:22:54;;;;;;;;;;;21.30;77.60;;;;;;5094043;28;19924;-62
2022/03/22 11:25:34;;;;;;;;;;;21.40;74.60;;;;;;5093367;28;20302;-62
2022/03/22 11:28:04;;;;;;;;;;;21.60;73.40;;;;;;5094023;28;19931;-62
2022/03/22 11:30:31;;;;;;;;;;;21.60;68.60;;;;;;5090438;28;19928;-62
2022/03/22 11:35:45;;;;;;;;;;;21.80;71.00;;;;;;5084253;28;19932;-62
2022/03/22 11:38:13;;;;;;;;;;;22.00;70.20;;;;;;5084248;28;19935;-62
2022/03/22 11:43:41;;;;;;;;;;;22.10;67.80;;;;;;5083470;28;19924;-62
2022/03/22 11:46:07;;;;;;;;;;;22.00;67.00;;;;;;5083334;28;19924;-62
2022/03/22 11:48:33;;;;;;;;;;;21.90;68.40;;;;;;5082150;28;19927;-62
2022/03/22 11:51:05;;;;;;;;;;;21.60;65.30;;;;;;5088032;28;19931;-62
2022/03/22 11:53:39;;;;;;;;;;;21.20;67.90;;;;;;5087976;28;19928;-62
2022/03/22 11:56:05;;;;;;;;;;;21.20;69.60;;;;;;5083151;28;20306;-62
2022/03/22 11:58:31;;;;;;;;;;;21.20;68.70;;;;;;5083054;28;19924;-62
2022/03/22 12:00:58;;;;;;;;;;;21.40;70.40;;;;;;5087229;28;19920;-62
2022/03/22 12:03:29;;;;;;;;;;;21.60;67.10;;;;;;5087870;28;19931;-62
2022/03/22 12:05:55;;;;;;;;;;;21.80;67.10;;;;;;5073757;28;19920;-62
2022/03/22 12:08:23;;;;;;;;;;;22.00;63.80;;;;;;5072912;28;19924;-62
2022/03/22 12:10:50;;;;;;;;;;;22.10;63.00;;;;;;5088510;28;19924;-62
2022/03/22 12:13:16;;;;;;;;;;;22.10;64.10;;;;;;5085573;28;20401;-62
2022/03/22 12:15:42;;;;;;;;;;;22.30;63.40;;;;;;5091157;28;19973;-62
2022/03/22 12:18:09;;;;;;;;;;;22.60;64.50;;;;;;5092899;28;20374;-62
2022/03/22 12:20:35;;;;;;;;;;;22.80;62.80;;;;;;5092988;28;19928;-62
2022/03/22 12:23:03;;;;;;;;;;;22.90;61.90;;;;;;5091996;28;20412;-62
2022/03/22 12:25:30;;;;;;;;;;;22.90;59.80;;;;;;5091145;28;19928;-62
2022/03/22 12:27:57;;;;;;;;;;;22.80;62.00;;;;;;5091002;28;20007;-62
2022/03/22 12:30:24;;;;;;;;;;;22.70;62.80;;;;;;5093406;28;20447;-62
2022/03/22 12:32:51;;;;;;;;;;;22.60;59.30;;;;;;5090913;28;19931;-62
2022/03/22 12:35:17;;;;;;;;;;;22.40;61.00;;;;;;5091694;28;20298;-62
2022/03/22 12:37:43;;;;;;;;;;;22.30;59.90;;;;;;5091176;28;19924;-62
2022/03/22 12:40:09;;;;;;;;;;;22.20;61.40;;;;;;5090834;28;20386;-62
2022/03/22 12:42:35;;;;;;;;;;;22.10;63.20;;;;;;5089737;28;19953;-62
2022/03/22 12:45:00;;;;;;;;;;;21.60;56.90;;;;;;5085826;28;19928;-62
2022/03/22 12:47:27;;;;;;;;;;;22.10;59.70;;;;;;5090520;28;19931;-62
2022/03/22 12:49:52;;;;;;;;;;;22.50;55.90;;;;;;5091248;28;19931;-62
2022/03/22 12:52:18;;;;;;;;;;;22.60;54.50;;;;;;5093077;28;19932;-62
2022/03/22 12:54:44;;;;;;;;;;;22.80;55.60;;;;;;5091463;28;19924;-62
2022/03/22 12:57:12;;;;;;;;;;;22.80;58.50;;;;;;5091170;28;19937;-62
2022/03/22 12:59:38;;;;;;;;;;;23.40;57.80;;;;;;5093144;28;19947;-62
2022/03/22 13:02:06;;;;;;;;;;;24.60;54.30;;;;;;5092206;28;20377;-62
2022/03/22 13:04:35;;;;;;;;;;;25.00;54.70;;;;;;5096757;28;19924;-62
2022/03/22 13:07:01;;;;;;;;;;;25.70;51.40;;;;;;5093096;28;19928;-62
2022/03/22 13:12:13;;;;;;;;;;;26.00;51.20;;;;;;5085080;28;19924;-62
2022/03/22 13:17:25;;;;;;;;;;;;;;;;;;5090483;28;20386;-62
2022/03/22 13:19:51;;;;;;;;;;;;;;;;;;5091550;28;19982;-62
2022/03/22 13:22:17;;;;;;;;;;;;;;;;;;5090472;28;19930;-62
2022/03/22 13:24:43;;;;;;;;;;;;;;;;;;5091255;28;19963;-63
2022/03/22 13:27:10;;;;;;;;;;;;;;;;;;5093972;28;19986;-63
2022/03/22 13:29:36;;;;;;;;;;;;;;;;;;5094661;28;20398;-62
2022/03/22 13:32:04;;;;;;;;;;;26.70;61.90;;;;;;5096143;28;19978;-62
2022/03/22 13:34:30;;;;;;;;;;;26.80;62.20;;;;;;5074923;28;19986;-62
2022/03/22 13:37:04;;;;;;;;;;;26.90;63.00;;;;;;5075556;28;19924;-62
2022/03/22 13:39:29;;;;;;;;;;;27.30;49.70;;;;;;5086089;28;19931;-62
2022/03/22 13:42:08;;;;;;;;;;;28.10;56.10;;;;;;5095026;28;19920;-62
2022/03/22 13:44:41;;;;;;;;;;;28.40;47.30;;;;;;5094837;28;19924;-62
2022/03/22 13:47:09;;;;;;;;;;;28.20;47.10;;;;;;5085688;28;20409;-62
2022/03/22 13:49:35;;;;;;;;;;;27.50;48.80;;;;;;5084709;28;20367;-62
2022/03/22 13:52:01;;;;;;;;;;;27.10;75.30;;;;;;5084524;28;19966;-62
2022/03/22 13:54:27;;;;;;;;;;;26.60;71.30;;;;;;5084053;28;19924;-62
2022/03/22 13:57:03;;;;;;;;;;;26.40;71.50;;;;;;5085488;28;20366;-62
2022/03/22 13:59:29;;;;;;;;;;;26.70;70.90;;;;;;5083969;28;19925;-62
2022/03/22 14:01:54;;;;;;;;;;;26.90;69.60;;;;;;5091617;28;20053;-62
2022/03/22 14:04:20;;;;;;;;;;;27.10;68.60;;;;;;5113518;28;19934;-62
2022/03/22 14:06:45;;;;;;;;;;;26.60;70.10;;;;;;5099863;28;19932;-62
2022/03/22 14:09:11;;;;;;;;;;;26.20;69.00;;;;;;5095663;28;20001;-63
2022/03/22 14:11:37;;;;;;;;;;;25.50;64.00;;;;;;5094944;28;19924;-63
2022/03/22 14:14:03;;;;;;;;;;;24.90;72.00;;;;;;5084864;28;20001;-62
2022/03/22 14:16:28;;;;;;;;;;;24.70;83.60;;;;;;5089984;28;19964;-62
2022/03/22 14:18:54;;;;;;;;;;;24.40;77.20;;;;;;5109594;28;20250;-62
2022/03/22 14:21:20;;;;;;;;;;;24.50;77.60;;;;;;5101079;28;20424;-62
2022/03/22 14:23:45;;;;;;;;;;;24.70;76.00;;;;;;5095437;28;20289;-62
2022/03/22 14:26:11;;;;;;;;;;;24.90;75.10;;;;;;5094596;28;20328;-62
2022/03/22 14:28:37;;;;;;;;;;;25.40;74.30;;;;;;5095452;28;20423;-63
2022/03/22 14:31:02;;;;;;;;;;;25.80;71.50;;;;;;5095138;28;19977;-62
2022/03/22 14:33:28;;;;;;;;;;;26.20;72.20;;;;;;5091337;28;20290;-62
2022/03/22 14:35:54;;;;;;;;;;;26.70;70.00;;;;;;5086060;28;20417;-62
2022/03/22 14:38:22;;;;;;;;;;;27.20;71.00;;;;;;5082726;28;20011;-62
2022/03/22 14:40:51;;;;;;;;;;;27.30;70.50;;;;;;5087913;28;19924;-62
2022/03/22 14:43:17;;;;;;;;;;;27.30;74.30;;;;;;5081176;28;19978;-62
2022/03/22 14:45:47;;;;;;;;;;;26.80;77.60;;;;;;5056828;28;19931;-62
2022/03/22 14:48:14;;;;;;;;;;;26.50;77.50;;;;;;5077050;28;19924;-62
2022/03/22 14:50:40;;;;;;;;;;;26.00;78.40;;;;;;5094690;28;19978;-62
2022/03/22 14:55:52;;;;;;;;;;;25.50;78.60;;;;;;5093327;28;19985;-62
2022/03/22 15:01:02;;;;;;;;;;;25.70;78.40;;;;;;5093033;28;19928;-62
2022/03/22 15:03:27;;;;;;;;;;;26.00;77.60;;;;;;5096532;28;20354;-62
2022/03/22 15:05:59;;;;;;;;;;;25.80;77.30;;;;;;5094487;28;20405;-63
2022/03/22 15:08:27;;;;;;;;;;;25.80;78.60;;;;;;5092180;28;19928;-62
2022/03/22 15:10:53;;;;;;;;;;;25.50;79.00;;;;;;5092903;28;19999;-62
2022/03/22 15:13:19;;;;;;;;;;;25.40;78.90;;;;;;5093278;28;20271;-62